Time;durP1;ratioP1;P1;durP2;ratioP2;P2;SDS_P1;SDS_P2;PMS_P1;PMS_P2;Temp;Humidity;BMP_temperature;BMP_pressure;BME280_temperature;BME280_humidity;BME280_pressure;Samples;Min_cycle;Max_cycle;Signal;HPM_P1;HPM_P2
2023/01/03 00:01:30;;;;;;;13.80;6.75;;;3.60;99.90;;;;;;5107554;27;20055;-80
2023/01/03 00:03:57;;;;;;;13.35;7.05;;;3.60;99.90;;;;;;5110980;27;20027;-80
2023/01/03 00:06:28;;;;;;;12.55;7.00;;;3.60;99.90;;;;;;5112120;27;20039;-80
2023/01/03 00:08:57;;;;;;;17.25;7.25;;;3.50;99.90;;;;;;5144415;27;20432;-80
2023/01/03 00:14:13;;;;;;;16.13;7.63;;;3.50;99.90;;;;;;5129509;27;20049;-80
2023/01/03 00:16:38;;;;;;;14.73;7.22;;;3.50;99.90;;;;;;5112230;27;20055;-79
2023/01/03 00:19:08;;;;;;;16.52;7.88;;;3.50;99.90;;;;;;5128482;27;20586;-80
2023/01/03 00:21:35;;;;;;;13.43;6.33;;;3.50;99.90;;;;;;5110818;27;20479;-79
2023/01/03 00:24:01;;;;;;;24.50;17.17;;;3.40;99.90;;;;;;5109342;27;20054;-80
2023/01/03 00:26:27;;;;;;;15.00;7.30;;;3.40;99.90;;;;;;5112485;27;20472;-81
2023/01/03 00:28:53;;;;;;;15.18;7.05;;;3.40;99.90;;;;;;5107264;27;20031;-80
2023/01/03 00:31:19;;;;;;;13.70;6.85;;;3.40;99.90;;;;;;5110926;27;20506;-79
2023/01/03 00:33:44;;;;;;;16.20;7.15;;;3.40;99.90;;;;;;5125290;27;20069;-80
2023/01/03 00:36:10;;;;;;;14.20;7.72;;;3.40;99.90;;;;;;5111637;27;20039;-80
2023/01/03 00:38:36;;;;;;;16.25;7.35;;;3.30;99.90;;;;;;5128331;27;20499;-79
2023/01/03 00:41:20;;;;;;;25.95;8.93;;;3.30;99.90;;;;;;5109779;27;20039;-80
2023/01/03 00:43:49;;;;;;;14.15;7.45;;;3.20;99.90;;;;;;5104279;27;20039;-80
2023/01/03 00:46:17;;;;;;;18.35;8.55;;;3.20;99.90;;;;;;5129505;27;20035;-80
2023/01/03 00:48:43;;;;;;;15.05;7.78;;;3.30;99.90;;;;;;5111600;27;20039;-79
2023/01/03 00:51:12;;;;;;;13.75;6.70;;;3.20;99.90;;;;;;5129464;27;20031;-80
2023/01/03 00:53:39;;;;;;;13.35;7.07;;;3.10;99.90;;;;;;5126325;27;20076;-80
2023/01/03 00:56:08;;;;;;;15.20;6.68;;;3.10;99.90;;;;;;5105878;27;20043;-80
2023/01/03 00:58:38;;;;;;;16.35;7.70;;;3.10;99.90;;;;;;5104654;27;20046;-80
2023/01/03 01:01:20;;;;;;;17.95;8.43;;;3.00;99.90;;;;;;5107285;27;20050;-81
2023/01/03 01:03:49;;;;;;;17.65;9.10;;;3.00;99.90;;;;;;5125459;27;20057;-80
2023/01/03 01:06:18;;;;;;;15.50;8.30;;;3.00;99.90;;;;;;5109750;27;20531;-80
2023/01/03 01:08:45;;;;;;;19.88;9.13;;;3.00;99.90;;;;;;5092230;27;20043;-80
2023/01/03 01:11:13;;;;;;;19.35;10.35;;;3.00;99.90;;;;;;5105422;27;20395;-80
2023/01/03 01:13:39;;;;;;;19.95;8.80;;;3.00;99.90;;;;;;5107606;27;20497;-80
2023/01/03 01:16:14;;;;;;;16.83;8.65;;;3.10;99.90;;;;;;5141911;27;20043;-80
2023/01/03 01:18:42;;;;;;;18.63;9.13;;;3.10;99.90;;;;;;5127766;27;20043;-80
2023/01/03 01:21:13;;;;;;;21.90;11.70;;;3.20;99.90;;;;;;5106222;27;20050;-81
2023/01/03 01:23:40;;;;;;;21.15;12.70;;;3.20;99.90;;;;;;5128387;27;20082;-80
2023/01/03 01:26:07;;;;;;;23.35;10.82;;;3.30;99.90;;;;;;5108397;27;20120;-80
2023/01/03 01:28:33;;;;;;;24.05;12.25;;;3.30;99.90;;;;;;5110066;27;20057;-80
2023/01/03 01:31:00;;;;;;;24.73;12.85;;;3.30;99.90;;;;;;5110379;27;20054;-80
2023/01/03 01:33:26;;;;;;;23.60;11.93;;;3.30;99.90;;;;;;5129074;27;20039;-80
2023/01/03 01:35:53;;;;;;;21.23;10.40;;;3.30;99.90;;;;;;5108371;27;20047;-80
2023/01/03 01:38:18;;;;;;;20.25;10.20;;;3.30;99.90;;;;;;5143880;27;20039;-80
2023/01/03 01:40:44;;;;;;;21.52;10.82;;;3.20;99.90;;;;;;5109606;27;20031;-80
2023/01/03 01:46:21;;;;;;;25.38;10.95;;;3.20;99.90;;;;;;5104113;27;20371;-80
2023/01/03 01:48:50;;;;;;;19.57;10.23;;;3.20;99.90;;;;;;5107564;27;20039;-79
2023/01/03 01:51:18;;;;;;;20.08;10.35;;;3.20;99.90;;;;;;5109194;27;20301;-81
2023/01/03 01:53:44;;;;;;;22.58;11.63;;;3.20;99.90;;;;;;5126412;27;20035;-82
2023/01/03 01:56:19;;;;;;;23.27;11.70;;;3.10;99.90;;;;;;5109953;27;20035;-82
2023/01/03 01:58:47;;;;;;;23.23;10.07;;;3.10;99.90;;;;;;5126358;27;20043;-81
2023/01/03 02:01:15;;;;;;;23.08;10.15;;;3.00;99.90;;;;;;5105952;27;20042;-79
2023/01/03 02:03:44;;;;;;;19.58;9.90;;;3.00;99.90;;;;;;5105147;27;20049;-79
2023/01/03 02:06:13;;;;;;;17.95;9.15;;;2.90;99.90;;;;;;5103557;27;20046;-80
2023/01/03 02:08:39;;;;;;;22.05;11.02;;;2.80;99.90;;;;;;5109497;27;20046;-80
2023/01/03 02:11:22;;;;;;;18.02;9.68;;;2.80;99.90;;;;;;5125371;27;20042;-80
2023/01/03 02:14:16;;;;;;;22.88;10.40;;;2.80;99.90;;;;;;5107170;27;20046;-80
2023/01/03 02:16:47;;;;;;;19.65;9.45;;;2.80;99.90;;;;;;5126449;27;20046;-80
2023/01/03 02:19:42;;;;;;;20.02;9.68;;;2.90;99.90;;;;;;5107875;27;20038;-80
2023/01/03 02:22:26;;;;;;;21.77;10.25;;;2.80;99.90;;;;;;5108871;27;20046;-80
2023/01/03 02:25:28;;;;;;;25.23;10.25;;;2.80;99.90;;;;;;5124932;27;20365;-80
2023/01/03 02:28:17;;;;;;;19.33;9.32;;;2.80;99.90;;;;;;5108174;27;20119;-80
2023/01/03 02:30:58;;;;;;;18.98;9.95;;;2.80;99.90;;;;;;5025059;28;20049;-80
2023/01/03 02:33:45;;;;;;;19.55;10.05;;;2.80;99.90;;;;;;5007238;28;20061;-80
2023/01/03 02:36:37;;;;;;;22.92;9.90;;;2.80;99.90;;;;;;5023129;28;20156;-80
2023/01/03 02:39:08;;;;;;;21.08;10.70;;;2.80;99.90;;;;;;5018482;28;20061;-80
2023/01/03 02:41:45;;;;;;;22.02;9.80;;;2.80;99.90;;;;;;5006896;28;20073;-80
2023/01/03 02:44:30;;;;;;;18.30;9.70;;;2.90;99.90;;;;;;5005106;28;20057;-80
2023/01/03 02:47:04;;;;;;;21.83;10.00;;;2.90;99.90;;;;;;5018089;28;20401;-80
2023/01/03 02:49:32;;;;;;;21.55;9.85;;;2.90;99.90;;;;;;5007537;28;20049;-80
2023/01/03 02:52:05;;;;;;;20.00;9.57;;;2.80;99.90;;;;;;5023537;28;20048;-80
2023/01/03 02:54:44;;;;;;;21.80;10.20;;;2.80;99.90;;;;;;5024601;28;20041;-80
2023/01/03 02:57:14;;;;;;;23.17;10.90;;;2.80;99.90;;;;;;5007472;28;20047;-80
2023/01/03 02:59:48;;;;;;;21.77;10.77;;;2.90;99.90;;;;;;5005052;28;20129;-80
2023/01/03 03:02:15;;;;;;;23.73;11.30;;;2.90;99.90;;;;;;5039944;28;20501;-80
2023/01/03 03:04:43;;;;;;;18.30;10.75;;;2.90;99.90;;;;;;5022883;28;20526;-79
2023/01/03 03:07:18;;;;;;;28.83;12.30;;;2.90;99.90;;;;;;5049528;28;20047;-80
2023/01/03 03:15:23;;;;;;;27.38;13.10;;;2.90;99.90;;;;;;5124363;28;20059;-80
2023/01/03 03:17:53;;;;;;;26.67;13.45;;;2.90;99.90;;;;;;5121549;28;20384;-79
2023/01/03 03:26:10;;;;;;;24.98;12.00;;;2.90;99.90;;;;;;5101685;28;20051;-79
2023/01/03 03:28:38;;;;;;;22.42;10.50;;;2.80;99.90;;;;;;5110172;28;20054;-80
2023/01/03 03:31:31;;;;;;;33.55;10.82;;;2.80;99.90;;;;;;5108296;28;20043;-80
2023/01/03 03:34:15;;;;;;;23.80;9.35;;;2.70;99.90;;;;;;5105679;28;20047;-80
2023/01/03 03:37:03;;;;;;;24.20;10.27;;;2.60;99.90;;;;;;5108842;28;20047;-80
2023/01/03 03:45:27;;;;;;;23.73;12.15;;;2.50;99.90;;;;;;5127220;28;20044;-80
2023/01/03 03:48:05;;;;;;;20.80;9.57;;;2.50;99.90;;;;;;5106464;28;20040;-80
2023/01/03 03:50:47;;;;;;;27.63;11.68;;;2.40;99.90;;;;;;5105382;27;20043;-79
2023/01/03 03:53:15;;;;;;;35.45;12.55;;;2.40;99.90;;;;;;5111333;27;20047;-80
2023/01/03 03:55:50;;;;;;;21.58;9.98;;;2.40;99.90;;;;;;5110960;27;20490;-81
2023/01/03 03:58:39;;;;;;;26.48;11.90;;;2.40;99.90;;;;;;5108099;27;20395;-79
2023/01/03 04:01:07;;;;;;;32.30;12.52;;;2.50;99.90;;;;;;5089231;27;20039;-81
2023/01/03 04:03:36;;;;;;;30.88;13.98;;;2.60;99.90;;;;;;5106754;27;20043;-79
2023/01/03 04:06:09;;;;;;;26.25;12.30;;;2.60;99.90;;;;;;5129771;27;20043;-79
2023/01/03 04:08:35;;;;;;;28.27;12.88;;;2.70;99.90;;;;;;5109513;27;20387;-81
2023/01/03 04:11:06;;;;;;;27.75;13.80;;;2.70;99.90;;;;;;5111339;27;20100;-80
2023/01/03 04:13:32;;;;;;;;;;;2.70;99.90;;;;;;5131770;27;20050;-81
2023/01/03 04:15:58;;;;;;;29.17;13.23;;;2.70;99.90;;;;;;5109938;27;20025;-81
2023/01/03 04:18:24;;;;;;;25.88;13.20;;;2.70;99.90;;;;;;5125863;27;20566;-81
2023/01/03 04:20:49;;;;;;;25.17;11.80;;;2.70;99.90;;;;;;5111952;27;20079;-81
2023/01/03 04:23:15;;;;;;;27.15;14.05;;;2.70;99.90;;;;;;5130356;27;20134;-81
2023/01/03 04:25:40;;;;;;;26.73;13.45;;;2.60;99.90;;;;;;5130324;27;20098;-81
2023/01/03 04:28:06;;;;;;;29.75;14.88;;;2.70;99.90;;;;;;5129810;27;20499;-80
2023/01/03 04:30:32;;;;;;;31.15;14.32;;;2.70;99.90;;;;;;5111165;27;20084;-80
2023/01/03 04:32:57;;;;;;;29.50;14.20;;;2.70;99.90;;;;;;5107167;27;20096;-79
2023/01/03 04:35:23;;;;;;;26.92;12.88;;;2.70;99.90;;;;;;5112604;27;20047;-79
2023/01/03 04:37:49;;;;;;;29.55;14.15;;;2.60;99.90;;;;;;5128612;27;20049;-79
2023/01/03 04:40:14;;;;;;;29.38;15.32;;;2.50;99.90;;;;;;5094699;27;20031;-78
2023/01/03 04:45:24;;;;;;;29.95;14.40;;;2.50;99.90;;;;;;5129448;27;20047;-80
2023/01/03 04:47:52;;;;;;;32.72;16.13;;;2.50;99.90;;;;;;5111419;27;20046;-79
2023/01/03 04:50:17;;;;;;;29.95;15.55;;;2.50;99.90;;;;;;5108408;27;20070;-80
2023/01/03 04:52:43;;;;;;;32.25;16.10;;;2.60;99.90;;;;;;5111475;27;20074;-80
2023/01/03 04:55:09;;;;;;;31.00;16.10;;;2.70;99.90;;;;;;5128848;27;20491;-80
2023/01/03 04:57:35;;;;;;;35.03;17.45;;;2.70;99.90;;;;;;5125138;27;20039;-80
2023/01/03 05:00:01;;;;;;;37.53;17.45;;;2.80;99.90;;;;;;5127383;27;20043;-80
2023/01/03 05:02:27;;;;;;;37.17;18.05;;;2.90;99.90;;;;;;5105402;28;20410;-79
2023/01/03 05:04:52;;;;;;;35.50;16.55;;;2.90;99.90;;;;;;5091635;27;20035;-80
2023/01/03 05:07:18;;;;;;;36.70;17.08;;;2.90;99.90;;;;;;5143142;27;20066;-80
2023/01/03 05:09:43;;;;;;;35.95;16.95;;;2.90;99.90;;;;;;5111530;27;20046;-79
2023/01/03 05:12:11;;;;;;;36.85;17.33;;;3.00;99.90;;;;;;5110259;27;20039;-80
2023/01/03 05:14:40;;;;;;;34.67;16.33;;;3.00;99.90;;;;;;5109190;27;20047;-80
2023/01/03 05:17:07;;;;;;;33.15;16.77;;;3.10;99.90;;;;;;5128955;27;20391;-80
2023/01/03 05:19:32;;;;;;;36.45;19.45;;;3.00;99.90;;;;;;5109545;27;20118;-79
2023/01/03 05:27:26;;;;;;;34.50;18.17;;;2.90;99.90;;;;;;5126596;27;20055;-79
2023/01/03 05:29:54;;;;;;;39.38;19.90;;;2.90;99.90;;;;;;5109110;27;20083;-80
2023/01/03 05:32:19;;;;;;;35.80;18.00;;;2.80;99.90;;;;;;5111322;27;20049;-79
2023/01/03 05:34:45;;;;;;;35.13;18.23;;;2.80;99.90;;;;;;5108990;27;20039;-79
2023/01/03 05:37:11;;;;;;;36.13;18.40;;;2.70;99.90;;;;;;5128981;27;20138;-79
2023/01/03 05:39:37;;;;;;;36.65;18.35;;;2.70;99.90;;;;;;5127811;27;20123;-79
2023/01/03 05:42:03;;;;;;;36.10;19.25;;;2.60;99.90;;;;;;5129088;27;20035;-79
2023/01/03 05:44:31;;;;;;;34.60;17.98;;;2.60;99.90;;;;;;5106785;27;20035;-79
2023/01/03 05:46:58;;;;;;;34.58;17.30;;;2.60;99.90;;;;;;5129082;27;20039;-79
2023/01/03 05:49:24;;;;;;;31.83;16.55;;;2.60;99.90;;;;;;5109171;27;20088;-79
2023/01/03 05:51:50;;;;;;;32.88;17.98;;;2.50;99.90;;;;;;5110396;27;20421;-79
2023/01/03 05:54:17;;;;;;;37.67;19.33;;;2.50;99.90;;;;;;5108568;27;20035;-80
2023/01/03 05:56:43;;;;;;;32.83;17.20;;;2.50;99.90;;;;;;5126718;27;20081;-79
2023/01/03 05:59:09;;;;;;;31.77;17.70;;;2.40;99.90;;;;;;5127042;27;20479;-79
2023/01/03 06:01:35;;;;;;;34.78;16.50;;;2.30;99.90;;;;;;5126083;27;20084;-79
2023/01/03 06:04:01;;;;;;;30.25;15.90;;;2.30;99.90;;;;;;5090678;27;20035;-79
2023/01/03 06:06:26;;;;;;;31.67;16.02;;;2.30;99.90;;;;;;5110745;27;20050;-79
2023/01/03 06:08:53;;;;;;;32.13;16.67;;;2.30;99.90;;;;;;5126579;27;20438;-79
2023/01/03 06:11:20;;;;;;;32.50;16.20;;;2.20;99.90;;;;;;5109752;27;20051;-79
2023/01/03 06:13:45;;;;;;;32.90;17.33;;;2.10;99.90;;;;;;5104130;28;20039;-79
2023/01/03 06:19:01;;;;;;;30.25;16.42;;;2.10;99.90;;;;;;5123983;27;20041;-79
2023/01/03 06:21:26;;;;;;;36.50;17.52;;;2.10;99.90;;;;;;5108250;27;20039;-80
2023/01/03 06:23:52;;;;;;;31.52;17.13;;;2.10;99.90;;;;;;5104158;27;20491;-80
2023/01/03 06:26:21;;;;;;;29.58;16.40;;;2.10;99.90;;;;;;5125118;27;20039;-82
2023/01/03 06:28:46;;;;;;;30.20;16.23;;;2.20;99.90;;;;;;5100969;27;20536;-79
2023/01/03 06:31:12;;;;;;;33.55;18.90;;;2.30;99.90;;;;;;5123052;27;20035;-81
2023/01/03 06:33:38;;;;;;;36.63;19.70;;;2.20;99.90;;;;;;5124480;27;20451;-80
2023/01/03 06:36:07;;;;;;;35.90;18.73;;;2.30;99.90;;;;;;5109695;27;20477;-79
2023/01/03 06:38:32;;;;;;;38.80;19.77;;;2.30;99.90;;;;;;5104284;27;20089;-79
2023/01/03 06:40:58;;;;;;;37.25;20.13;;;2.30;99.90;;;;;;5127642;27;20038;-80
2023/01/03 06:43:24;;;;;;;33.50;19.58;;;2.30;99.90;;;;;;5107513;27;20051;-79
2023/01/03 06:54:30;;;;;;;36.83;19.05;;;2.30;99.90;;;;;;5102211;27;20051;-80
2023/01/03 06:56:56;;;;;;;37.10;20.02;;;2.30;99.90;;;;;;5097236;27;20179;-80
2023/01/03 06:59:23;;;;;;;31.25;18.27;;;2.30;99.90;;;;;;5120224;27;20038;-80
2023/01/03 07:01:50;;;;;;;33.05;18.58;;;2.30;99.90;;;;;;5099126;28;20043;-80
2023/01/03 07:04:16;;;;;;;36.03;18.73;;;2.20;99.90;;;;;;5125393;27;20050;-78
2023/01/03 07:06:43;;;;;;;34.30;18.15;;;2.30;99.90;;;;;;5121110;28;20491;-79
2023/01/03 07:09:09;;;;;;;38.58;20.52;;;2.30;99.90;;;;;;5117538;28;20043;-79
2023/01/03 07:11:36;;;;;;;37.40;21.20;;;2.30;99.90;;;;;;5107391;28;20360;-78
2023/01/03 07:14:02;;;;;;;40.17;18.77;;;2.30;99.90;;;;;;5105225;28;20077;-79
2023/01/03 07:16:33;;;;;;;33.65;18.52;;;2.30;99.90;;;;;;5124123;28;20062;-80
2023/01/03 07:18:58;;;;;;;37.03;18.30;;;2.30;99.90;;;;;;5131897;27;20063;-79
2023/01/03 07:21:25;;;;;;;62.63;19.25;;;2.30;99.90;;;;;;5105741;28;20456;-79
2023/01/03 07:23:53;;;;;;;70.38;21.77;;;2.30;99.90;;;;;;5121913;28;20063;-80
2023/01/03 07:26:19;;;;;;;75.88;21.38;;;2.30;99.90;;;;;;5134813;27;20050;-80
2023/01/03 07:28:45;;;;;;;65.65;18.95;;;2.30;99.90;;;;;;5110957;27;20225;-79
2023/01/03 07:31:10;;;;;;;96.95;21.80;;;2.20;99.90;;;;;;5107856;27;20149;-79
2023/01/03 07:33:38;;;;;;;82.43;20.15;;;2.20;99.90;;;;;;5125827;27;20601;-80
2023/01/03 07:36:11;;;;;;;83.63;20.95;;;2.20;99.90;;;;;;5124538;27;20074;-79
2023/01/03 07:38:37;;;;;;;66.65;18.95;;;2.10;99.90;;;;;;5140626;27;20058;-79
2023/01/03 07:41:03;;;;;;;75.47;19.42;;;2.10;99.90;;;;;;5116961;27;20365;-80
2023/01/03 07:43:38;;;;;;;68.75;17.30;;;2.10;99.90;;;;;;5126985;27;20035;-80
2023/01/03 07:46:17;;;;;;;83.70;20.35;;;2.10;99.90;;;;;;5107145;27;20043;-80
2023/01/03 07:48:44;;;;;;;58.28;15.43;;;2.10;99.90;;;;;;5127928;27;20035;-80
2023/01/03 07:51:12;;;;;;;54.08;16.10;;;2.10;99.90;;;;;;5111620;27;20057;-80
2023/01/03 07:53:38;;;;;;;122.57;23.67;;;2.10;99.90;;;;;;5106761;27;20088;-81
2023/01/03 07:56:10;;;;;;;72.72;16.85;;;2.20;99.90;;;;;;5126105;27;20043;-81
2023/01/03 07:58:36;;;;;;;82.55;19.65;;;2.20;99.90;;;;;;5125971;27;20039;-79
2023/01/03 08:01:10;;;;;;;115.18;22.70;;;2.20;99.90;;;;;;5137920;27;20031;-80
2023/01/03 08:03:37;;;;;;;57.13;16.92;;;2.30;99.90;;;;;;5095938;27;20047;-78
2023/01/03 08:06:05;;;;;;;95.22;20.58;;;2.30;99.90;;;;;;5108842;27;20047;-80
2023/01/03 08:08:31;;;;;;;102.30;22.58;;;2.30;99.90;;;;;;5122269;27;20039;-81
2023/01/03 08:13:43;;;;;;;104.15;22.27;;;2.40;99.90;;;;;;5103595;27;20055;-81
2023/01/03 08:16:12;;;;;;;120.68;23.60;;;2.50;99.90;;;;;;5108485;27;20483;-76
2023/01/03 08:18:39;;;;;;;126.80;23.40;;;2.60;99.90;;;;;;5107894;27;20491;-80
2023/01/03 08:21:05;;;;;;;113.53;24.75;;;2.60;99.90;;;;;;5111491;27;20811;-79
2023/01/03 08:23:31;;;;;;;193.80;29.48;;;2.70;99.90;;;;;;5128767;27;20074;-79
2023/01/03 08:26:12;;;;;;;79.72;19.38;;;2.70;99.90;;;;;;5111455;27;20639;-78
2023/01/03 08:28:39;;;;;;;190.55;29.33;;;2.80;99.90;;;;;;5110677;27;20054;-79
2023/01/03 08:31:12;;;;;;;171.60;27.20;;;2.90;99.90;;;;;;5102009;27;20043;-78
2023/01/03 08:33:46;;;;;;;170.13;28.98;;;2.90;99.90;;;;;;5102336;27;20050;-78
2023/01/03 08:36:12;;;;;;;119.07;23.65;;;3.00;99.90;;;;;;5110757;27;20402;-78
2023/01/03 08:38:59;;;;;;;154.15;26.85;;;3.10;99.90;;;;;;5102841;27;20114;-78
2023/01/03 08:41:28;;;;;;;140.43;27.88;;;3.20;99.90;;;;;;5111734;27;20027;-78
2023/01/03 08:43:56;;;;;;;111.97;23.73;;;3.20;99.90;;;;;;5123864;27;20069;-78
2023/01/03 08:46:22;;;;;;;146.00;28.55;;;3.30;99.90;;;;;;5143412;27;20071;-79
2023/01/03 08:48:47;;;;;;;92.70;25.00;;;3.40;99.90;;;;;;5109069;27;20082;-79
2023/01/03 08:51:13;;;;;;;166.85;33.70;;;3.50;99.90;;;;;;5092039;27;20058;-79
2023/01/03 08:53:39;;;;;;;99.05;24.83;;;3.60;99.90;;;;;;5109999;27;20114;-78
2023/01/03 08:56:06;;;;;;;194.63;38.40;;;3.70;99.90;;;;;;5109975;27;20048;-78
2023/01/03 08:58:31;;;;;;;107.35;26.00;;;3.80;99.90;;;;;;5127173;27;20080;-79
2023/01/03 09:01:05;;;;;;;145.10;38.47;;;3.80;99.90;;;;;;5107240;27;20043;-79
2023/01/03 09:03:31;;;;;;;115.65;28.13;;;3.90;99.90;;;;;;5098522;27;20043;-79
2023/01/03 09:06:02;;;;;;;76.05;25.00;;;3.90;99.90;;;;;;5127440;27;20045;-79
2023/01/03 09:08:31;;;;;;;73.80;24.30;;;4.00;99.90;;;;;;5126264;27;20403;-79
2023/01/03 09:10:57;;;;;;;80.40;29.65;;;4.10;99.90;;;;;;5110440;27;20114;-79
2023/01/03 09:13:23;;;;;;;107.10;36.10;;;4.10;99.90;;;;;;5123517;27;20181;-79
2023/01/03 09:15:48;;;;;;;69.43;29.52;;;4.20;99.90;;;;;;5108089;27;20054;-79
2023/01/03 09:18:14;;;;;;;79.30;29.60;;;4.30;99.90;;;;;;5107398;27;20031;-79
2023/01/03 09:20:40;;;;;;;89.45;33.63;;;4.40;99.90;;;;;;5109937;27;20039;-79
2023/01/03 09:23:06;;;;;;;84.60;32.25;;;4.50;99.90;;;;;;5105178;27;20055;-79
2023/01/03 09:25:32;;;;;;;152.70;66.30;;;4.50;99.90;;;;;;5129678;27;20051;-79
2023/01/03 09:27:58;;;;;;;82.15;35.42;;;4.60;99.90;;;;;;5104386;27;20050;-79
2023/01/03 09:30:24;;;;;;;86.28;38.10;;;4.70;99.90;;;;;;5128981;27;20046;-79
2023/01/03 09:32:50;;;;;;;68.10;25.00;;;4.70;99.90;;;;;;5127266;27;20031;-79
2023/01/03 09:35:16;;;;;;;71.50;29.67;;;4.80;99.90;;;;;;5096338;27;20055;-80
2023/01/03 09:37:42;;;;;;;85.57;34.88;;;4.80;99.90;;;;;;5109932;27;20406;-79
2023/01/03 09:40:08;;;;;;;82.85;36.67;;;4.80;99.90;;;;;;5109602;27;20100;-79
2023/01/03 09:45:29;;;;;;;70.03;30.65;;;4.90;99.90;;;;;;5127868;27;20058;-79
2023/01/03 09:47:56;;;;;;;68.88;32.03;;;4.90;99.90;;;;;;5140172;27;20071;-79
2023/01/03 09:50:25;;;;;;;75.85;35.72;;;4.90;99.90;;;;;;5126536;27;20043;-79
2023/01/03 10:04:37;;;;;;;83.78;40.30;;;5.00;99.90;;;;;;5122631;27;20039;-79
2023/01/03 10:07:17;;;;;;;70.55;35.03;;;5.00;99.90;;;;;;5107330;27;20047;-78
2023/01/03 10:10:04;;;;;;;127.30;67.32;;;5.00;99.90;;;;;;5137504;27;20040;-78
2023/01/03 10:12:39;;;;;;;95.85;41.75;;;5.10;99.90;;;;;;5127648;27;20039;-78
2023/01/03 10:15:42;;;;;;;143.27;71.85;;;5.10;99.90;;;;;;5108567;27;20838;-78
2023/01/03 10:18:35;;;;;;;121.57;67.82;;;5.20;99.90;;;;;;5124494;27;20035;-78
2023/01/03 10:21:13;;;;;;;82.60;35.35;;;5.30;99.90;;;;;;5108120;27;20045;-78
2023/01/03 10:23:39;;;;;;;122.20;63.90;;;5.30;99.90;;;;;;5102137;27;20050;-79
2023/01/03 10:26:12;;;;;;;78.10;36.35;;;5.40;99.90;;;;;;5125655;27;20117;-78
2023/01/03 10:28:43;;;;;;;83.05;37.92;;;5.40;99.90;;;;;;5108777;27;20407;-78
2023/01/03 10:31:26;;;;;;;77.63;36.30;;;5.50;99.90;;;;;;5126195;27;20140;-78
2023/01/03 10:33:52;;;;;;;118.85;62.88;;;5.50;99.90;;;;;;5105043;27;20043;-78
2023/01/03 10:36:19;;;;;;;80.85;40.70;;;5.60;99.90;;;;;;5125669;27;20050;-77
2023/01/03 10:38:46;;;;;;;77.93;36.53;;;5.60;99.90;;;;;;5103012;27;20046;-78
2023/01/03 10:41:19;;;;;;;115.05;61.25;;;5.60;99.90;;;;;;5108422;27;20046;-79
2023/01/03 10:43:58;;;;;;;105.75;59.95;;;5.60;99.90;;;;;;5107280;27;20043;-79
2023/01/03 10:46:25;;;;;;;129.43;65.30;;;5.80;99.90;;;;;;5108178;27;20491;-78
2023/01/03 10:48:53;;;;;;;72.85;32.42;;;5.80;99.90;;;;;;5106920;28;20039;-78
2023/01/03 10:51:39;;;;;;;74.32;36.95;;;5.90;99.90;;;;;;5127003;27;20112;-78
2023/01/03 10:54:17;;;;;;;98.75;59.10;;;6.00;99.90;;;;;;5101457;27;20051;-78
2023/01/03 10:56:44;;;;;;;78.47;52.22;;;6.10;99.90;;;;;;5103113;27;20108;-78
2023/01/03 10:59:10;;;;;;;82.00;50.13;;;6.10;99.90;;;;;;5104039;27;20399;-77
2023/01/03 11:01:35;;;;;;;58.35;33.33;;;6.10;99.90;;;;;;5104330;28;20031;-78
2023/01/03 11:04:17;;;;;;;54.25;26.95;;;6.00;99.90;;;;;;5105640;28;20157;-78
2023/01/03 11:07:17;;;;;;;72.38;49.38;;;6.10;99.90;;;;;;5107411;28;20046;-78
2023/01/03 11:09:53;;;;;;;72.95;49.10;;;6.10;99.90;;;;;;5104244;28;20374;-78
2023/01/03 11:12:38;;;;;;;49.60;30.02;;;6.10;99.90;;;;;;5106668;28;20035;-78
2023/01/03 11:15:14;;;;;;;63.60;45.25;;;6.20;99.90;;;;;;5124021;28;20043;-78
2023/01/03 11:17:56;;;;;;;65.75;45.33;;;6.20;99.90;;;;;;5104594;27;20035;-79
2023/01/03 11:20:56;;;;;;;60.55;44.20;;;6.30;99.90;;;;;;5109169;28;20135;-79
2023/01/03 11:23:40;;;;;;;58.53;43.08;;;6.30;99.90;;;;;;5100955;28;20075;-78
2023/01/03 11:26:09;;;;;;;43.85;25.85;;;6.30;99.90;;;;;;5124730;28;20058;-79
2023/01/03 11:29:01;;;;;;;46.10;29.77;;;6.20;99.90;;;;;;5106609;28;20051;-78
2023/01/03 11:31:39;;;;;;;60.10;44.30;;;6.30;99.90;;;;;;5103043;28;20031;-78
2023/01/03 11:34:26;;;;;;;48.08;30.25;;;6.20;99.90;;;;;;5106583;28;20046;-79
2023/01/03 11:37:02;;;;;;;66.03;44.45;;;6.30;99.90;;;;;;5125649;28;20043;-79
2023/01/03 11:39:46;;;;;;;51.70;41.00;;;6.30;99.90;;;;;;5106848;28;20050;-79
2023/01/03 11:42:17;;;;;;;54.20;41.38;;;6.30;99.90;;;;;;5121954;28;20089;-78
2023/01/03 11:44:58;;;;;;;55.38;41.55;;;6.30;99.90;;;;;;5106040;28;20035;-78
2023/01/03 11:47:48;;;;;;;41.97;24.70;;;6.30;99.90;;;;;;5105639;28;20045;-79
2023/01/03 11:50:35;;;;;;;41.55;26.10;;;6.30;99.90;;;;;;5123295;27;20035;-78
2023/01/03 11:53:03;;;;;;;40.17;26.88;;;6.30;99.90;;;;;;5125677;28;20045;-76
2023/01/03 11:55:53;;;;;;;51.25;38.95;;;6.30;99.90;;;;;;5104610;28;20092;-77
2023/01/03 11:58:50;;;;;;;50.83;38.55;;;6.40;99.90;;;;;;5123834;28;20036;-77
2023/01/03 12:01:41;;;;;;;50.13;38.53;;;6.40;99.90;;;;;;5133723;27;20031;-76
2023/01/03 12:04:14;;;;;;;32.93;20.17;;;6.40;99.90;;;;;;5103121;28;20038;-77
2023/01/03 12:07:02;;;;;;;43.75;35.88;;;6.40;99.90;;;;;;5106575;28;20585;-78
2023/01/03 12:09:57;;;;;;;38.08;21.90;;;6.40;99.90;;;;;;5107856;28;20047;-78
2023/01/03 12:12:56;;;;;;;46.55;35.65;;;6.50;99.90;;;;;;5107564;27;20047;-78
2023/01/03 12:15:26;;;;;;;42.38;33.15;;;6.50;99.90;;;;;;5107452;27;20565;-79
2023/01/03 12:18:13;;;;;;;45.63;34.92;;;6.50;99.90;;;;;;5110274;27;20543;-79
2023/01/03 12:20:46;;;;;;;40.03;33.40;;;6.60;99.90;;;;;;5108102;27;20047;-79
2023/01/03 12:23:21;;;;;;;42.40;33.03;;;6.60;99.90;;;;;;5102512;27;20045;-81
2023/01/03 12:25:51;;;;;;;31.02;19.02;;;6.70;99.90;;;;;;5106494;27;20141;-79
2023/01/03 12:29:04;;;;;;;31.60;17.83;;;6.70;99.90;;;;;;5108987;27;20054;-82
2023/01/03 12:31:38;;;;;;;40.05;31.35;;;6.70;99.90;;;;;;5111805;27;20047;-80
2023/01/03 12:34:33;;;;;;;41.30;31.15;;;6.70;99.90;;;;;;5104611;27;20360;-81
2023/01/03 12:37:08;;;;;;;42.53;31.15;;;6.70;99.90;;;;;;5138907;27;20044;-79
2023/01/03 12:39:49;;;;;;;41.00;31.77;;;6.70;99.90;;;;;;5111869;27;20047;-80
2023/01/03 12:42:26;;;;;;;31.90;20.05;;;6.80;99.90;;;;;;5116096;27;20485;-78
2023/01/03 12:45:06;;;;;;;33.13;18.52;;;6.80;99.90;;;;;;5107067;27;20042;-78
2023/01/03 12:48:15;;;;;;;32.50;18.73;;;6.80;99.90;;;;;;5110379;27;20495;-78
2023/01/03 12:50:41;;;;;;;46.35;32.30;;;6.80;99.90;;;;;;5105470;27;20047;-79
2023/01/03 12:53:26;;;;;;;46.40;33.15;;;6.80;99.90;;;;;;5106126;27;20394;-81
2023/01/03 12:56:02;;;;;;;46.47;34.00;;;6.80;99.90;;;;;;5139968;27;20047;-81
2023/01/03 12:58:39;;;;;;;30.65;18.08;;;6.80;99.90;;;;;;5091105;27;20532;-80
2023/01/03 13:01:06;;;;;;;51.90;34.92;;;6.80;99.90;;;;;;5103018;27;20047;-80
2023/01/03 13:03:51;;;;;;;50.92;35.40;;;6.80;99.90;;;;;;5136354;27;20047;-80
2023/01/03 13:06:23;;;;;;;55.85;35.58;;;6.80;99.90;;;;;;5142730;27;20058;-80
2023/01/03 13:09:12;;;;;;;46.80;34.22;;;6.80;99.90;;;;;;5107943;27;20034;-80
2023/01/03 13:11:53;;;;;;;51.05;34.72;;;6.80;99.90;;;;;;5108478;27;20043;-79
2023/01/03 13:14:25;;;;;;;31.65;20.45;;;6.90;99.90;;;;;;5090759;27;20059;-81
2023/01/03 13:16:55;;;;;;;50.35;33.03;;;6.90;99.90;;;;;;5110522;27;20095;-80
2023/01/03 13:19:21;;;;;;;33.33;18.75;;;6.90;99.90;;;;;;5110984;27;20043;-80
2023/01/03 13:21:52;;;;;;;43.30;31.00;;;6.90;99.90;;;;;;5110016;27;20039;-80
2023/01/03 13:24:48;;;;;;;43.03;31.67;;;6.90;99.90;;;;;;5102489;28;20052;-80
2023/01/03 13:27:16;;;;;;;44.08;31.55;;;6.90;99.90;;;;;;5101567;28;20032;-80
2023/01/03 13:29:48;;;;;;;44.10;32.30;;;6.90;99.90;;;;;;5101985;27;20047;-79
2023/01/03 13:32:25;;;;;;;43.00;30.75;;;7.00;99.90;;;;;;5106553;27;20044;-81
2023/01/03 13:34:57;;;;;;;28.83;16.92;;;7.00;99.90;;;;;;5105022;27;20031;-80
2023/01/03 13:37:42;;;;;;;38.83;28.15;;;7.00;99.90;;;;;;5103182;28;21358;-80
2023/01/03 13:40:29;;;;;;;34.20;27.27;;;7.00;99.90;;;;;;5103681;28;20372;-81
2023/01/03 13:43:07;;;;;;;37.10;27.90;;;7.10;99.90;;;;;;5102134;28;20047;-81
2023/01/03 13:45:32;;;;;;;34.75;27.40;;;7.10;99.90;;;;;;5103951;28;20059;-81
2023/01/03 13:48:28;;;;;;;37.85;27.33;;;7.10;99.90;;;;;;5101872;28;20035;-80
2023/01/03 13:51:13;;;;;;;34.90;26.23;;;7.20;99.90;;;;;;5101808;28;20138;-82
2023/01/03 13:53:59;;;;;;;32.90;25.67;;;7.20;99.90;;;;;;5103543;28;20047;-80
2023/01/03 13:56:28;;;;;;;33.45;26.10;;;7.20;99.90;;;;;;5099486;28;20092;-79
2023/01/03 13:59:09;;;;;;;33.80;25.00;;;7.20;99.90;;;;;;5088604;28;20047;-80
2023/01/03 14:01:47;;;;;;;25.63;15.00;;;7.20;99.90;;;;;;5131066;27;20044;-80
2023/01/03 14:04:47;;;;;;;32.10;24.05;;;7.20;99.90;;;;;;5103994;27;20089;-80